sensor_id;sensor_type;location;lat;lon;timestamp;P1;durP1;ratioP1;P2;durP2;ratioP2
62056;SDS011;48016;50.284;18.860;2023-03-23T00:00:56;27.10;;;17.20;;
62056;SDS011;48016;50.284;18.860;2023-03-23T00:03:22;29.60;;;18.30;;
62056;SDS011;48016;50.284;18.860;2023-03-23T00:08:19;29.30;;;17.80;;
62056;SDS011;48016;50.284;18.860;2023-03-23T00:10:51;31.20;;;20.30;;
62056;SDS011;48016;50.284;18.860;2023-03-23T00:13:27;31.00;;;19.60;;
62056;SDS011;48016;50.284;18.860;2023-03-23T00:15:54;35.70;;;20.50;;
62056;SDS011;48016;50.284;18.860;2023-03-23T00:18:22;32.80;;;20.40;;
62056;SDS011;48016;50.284;18.860;2023-03-23T00:20:49;32.40;;;19.60;;
62056;SDS011;48016;50.284;18.860;2023-03-23T00:23:21;31.30;;;18.10;;
62056;SDS011;48016;50.284;18.860;2023-03-23T00:25:52;33.80;;;20.40;;
62056;SDS011;48016;50.284;18.860;2023-03-23T00:28:23;31.70;;;18.80;;
62056;SDS011;48016;50.284;18.860;2023-03-23T00:30:54;30.50;;;19.20;;
62056;SDS011;48016;50.284;18.860;2023-03-23T00:33:25;30.10;;;18.70;;
62056;SDS011;48016;50.284;18.860;2023-03-23T00:35:53;31.00;;;19.50;;
62056;SDS011;48016;50.284;18.860;2023-03-23T00:38:21;30.00;;;18.60;;
62056;SDS011;48016;50.284;18.860;2023-03-23T00:40:48;28.90;;;18.20;;
62056;SDS011;48016;50.284;18.860;2023-03-23T00:43:15;28.70;;;18.90;;
62056;SDS011;48016;50.284;18.860;2023-03-23T00:45:42;28.40;;;18.00;;
62056;SDS011;48016;50.284;18.860;2023-03-23T00:48:19;27.60;;;17.90;;
62056;SDS011;48016;50.284;18.860;2023-03-23T00:50:46;27.70;;;19.00;;
62056;SDS011;48016;50.284;18.860;2023-03-23T00:53:12;30.70;;;18.40;;
62056;SDS011;48016;50.284;18.860;2023-03-23T00:55:40;27.90;;;18.90;;
62056;SDS011;48016;50.284;18.860;2023-03-23T00:58:10;26.60;;;17.90;;
62056;SDS011;48016;50.284;18.860;2023-03-23T01:00:36;28.10;;;18.10;;
62056;SDS011;48016;50.284;18.860;2023-03-23T01:03:03;30.70;;;18.60;;
62056;SDS011;48016;50.284;18.860;2023-03-23T01:05:34;30.00;;;19.30;;
62056;SDS011;48016;50.284;18.860;2023-03-23T01:08:00;33.90;;;20.60;;
62056;SDS011;48016;50.284;18.860;2023-03-23T01:10:27;35.50;;;21.60;;
62056;SDS011;48016;50.284;18.860;2023-03-23T01:12:54;30.60;;;18.90;;
62056;SDS011;48016;50.284;18.860;2023-03-23T01:15:20;28.50;;;19.80;;
62056;SDS011;48016;50.284;18.860;2023-03-23T01:17:46;32.20;;;19.40;;
62056;SDS011;48016;50.284;18.860;2023-03-23T01:20:13;28.50;;;18.90;;
62056;SDS011;48016;50.284;18.860;2023-03-23T02:27:05;23.70;;;16.20;;
62056;SDS011;48016;50.284;18.860;2023-03-23T02:37:05;22.70;;;14.90;;
62056;SDS011;48016;50.284;18.860;2023-03-23T02:44:02;22.00;;;15.00;;
62056;SDS011;48016;50.284;18.860;2023-03-23T02:48:55;20.50;;;14.60;;
62056;SDS011;48016;50.284;18.860;2023-03-23T02:58:00;21.50;;;14.40;;
62056;SDS011;48016;50.284;18.860;2023-03-23T03:14:06;23.30;;;14.30;;
62056;SDS011;48016;50.284;18.860;2023-03-23T03:23:40;20.60;;;13.90;;
62056;SDS011;48016;50.284;18.860;2023-03-23T03:26:10;22.70;;;13.80;;
62056;SDS011;48016;50.284;18.860;2023-03-23T03:28:38;25.20;;;14.60;;
62056;SDS011;48016;50.284;18.860;2023-03-23T03:38:04;19.50;;;13.40;;
62056;SDS011;48016;50.284;18.860;2023-03-23T03:45:22;20.70;;;14.00;;
62056;SDS011;48016;50.284;18.860;2023-03-23T03:51:29;21.40;;;14.20;;
62056;SDS011;48016;50.284;18.860;2023-03-23T03:57:37;21.80;;;15.70;;
62056;SDS011;48016;50.284;18.860;2023-03-23T04:03:45;26.40;;;16.00;;
62056;SDS011;48016;50.284;18.860;2023-03-23T04:06:11;26.30;;;15.90;;
62056;SDS011;48016;50.284;18.860;2023-03-23T04:08:40;23.90;;;15.10;;
62056;SDS011;48016;50.284;18.860;2023-03-23T04:17:00;22.20;;;13.60;;
62056;SDS011;48016;50.284;18.860;2023-03-23T04:22:44;25.70;;;15.00;;
62056;SDS011;48016;50.284;18.860;2023-03-23T04:25:11;24.80;;;14.50;;
62056;SDS011;48016;50.284;18.860;2023-03-23T04:30:09;25.60;;;15.30;;
62056;SDS011;48016;50.284;18.860;2023-03-23T04:32:38;25.50;;;16.10;;
62056;SDS011;48016;50.284;18.860;2023-03-23T04:35:10;28.50;;;14.70;;
62056;SDS011;48016;50.284;18.860;2023-03-23T04:37:38;28.70;;;15.80;;
62056;SDS011;48016;50.284;18.860;2023-03-23T04:40:05;31.40;;;15.30;;
62056;SDS011;48016;50.284;18.860;2023-03-23T04:42:33;23.90;;;14.90;;
62056;SDS011;48016;50.284;18.860;2023-03-23T04:44:59;28.70;;;15.90;;
62056;SDS011;48016;50.284;18.860;2023-03-23T04:47:25;22.60;;;14.50;;
62056;SDS011;48016;50.284;18.860;2023-03-23T04:49:56;25.80;;;15.10;;
62056;SDS011;48016;50.284;18.860;2023-03-23T04:52:24;28.20;;;16.20;;
62056;SDS011;48016;50.284;18.860;2023-03-23T04:54:52;25.20;;;15.00;;
62056;SDS011;48016;50.284;18.860;2023-03-23T04:57:18;27.20;;;15.50;;
62056;SDS011;48016;50.284;18.860;2023-03-23T04:59:44;25.50;;;14.10;;
62056;SDS011;48016;50.284;18.860;2023-03-23T05:02:10;23.80;;;13.70;;
62056;SDS011;48016;50.284;18.860;2023-03-23T05:04:39;22.80;;;13.10;;
62056;SDS011;48016;50.284;18.860;2023-03-23T05:07:07;24.50;;;13.70;;
62056;SDS011;48016;50.284;18.860;2023-03-23T05:09:33;24.10;;;13.60;;
62056;SDS011;48016;50.284;18.860;2023-03-23T05:12:07;21.80;;;13.00;;
62056;SDS011;48016;50.284;18.860;2023-03-23T05:14:35;17.30;;;12.20;;
62056;SDS011;48016;50.284;18.860;2023-03-23T05:17:02;21.40;;;13.70;;
62056;SDS011;48016;50.284;18.860;2023-03-23T05:19:28;26.20;;;14.20;;
62056;SDS011;48016;50.284;18.860;2023-03-23T05:21:56;23.80;;;13.30;;
62056;SDS011;48016;50.284;18.860;2023-03-23T05:24:30;20.60;;;12.90;;
62056;SDS011;48016;50.284;18.860;2023-03-23T05:26:59;20.10;;;13.50;;
62056;SDS011;48016;50.284;18.860;2023-03-23T05:29:25;21.30;;;13.80;;
62056;SDS011;48016;50.284;18.860;2023-03-23T05:31:52;24.20;;;14.40;;
62056;SDS011;48016;50.284;18.860;2023-03-23T05:34:22;22.00;;;14.60;;
62056;SDS011;48016;50.284;18.860;2023-03-23T05:36:47;21.00;;;13.60;;
62056;SDS011;48016;50.284;18.860;2023-03-23T05:39:15;21.20;;;14.00;;
62056;SDS011;48016;50.284;18.860;2023-03-23T05:41:43;24.80;;;15.70;;
62056;SDS011;48016;50.284;18.860;2023-03-23T05:44:09;21.20;;;14.50;;
62056;SDS011;48016;50.284;18.860;2023-03-23T05:46:35;22.10;;;14.20;;
62056;SDS011;48016;50.284;18.860;2023-03-23T05:49:01;20.80;;;14.30;;
62056;SDS011;48016;50.284;18.860;2023-03-23T05:51:27;19.80;;;12.80;;
62056;SDS011;48016;50.284;18.860;2023-03-23T05:53:53;86.20;;;67.10;;
62056;SDS011;48016;50.284;18.860;2023-03-23T05:56:21;124.20;;;83.90;;
62056;SDS011;48016;50.284;18.860;2023-03-23T05:58:48;24.10;;;16.30;;
62056;SDS011;48016;50.284;18.860;2023-03-23T06:01:14;18.20;;;13.30;;
62056;SDS011;48016;50.284;18.860;2023-03-23T06:06:10;19.30;;;13.40;;
62056;SDS011;48016;50.284;18.860;2023-03-23T06:08:37;19.60;;;12.00;;
62056;SDS011;48016;50.284;18.860;2023-03-23T06:11:04;20.40;;;11.60;;
62056;SDS011;48016;50.284;18.860;2023-03-23T06:13:31;16.70;;;11.10;;
62056;SDS011;48016;50.284;18.860;2023-03-23T06:15:57;17.30;;;11.20;;
62056;SDS011;48016;50.284;18.860;2023-03-23T06:18:23;15.40;;;11.90;;
62056;SDS011;48016;50.284;18.860;2023-03-23T06:20:50;16.10;;;11.90;;
62056;SDS011;48016;50.284;18.860;2023-03-23T06:23:17;17.40;;;12.00;;
62056;SDS011;48016;50.284;18.860;2023-03-23T06:25:44;17.60;;;12.60;;
62056;SDS011;48016;50.284;18.860;2023-03-23T06:28:10;21.70;;;13.20;;
62056;SDS011;48016;50.284;18.860;2023-03-23T06:30:36;19.20;;;12.10;;
62056;SDS011;48016;50.284;18.860;2023-03-23T06:33:04;18.50;;;13.60;;
62056;SDS011;48016;50.284;18.860;2023-03-23T06:35:31;18.00;;;13.40;;
62056;SDS011;48016;50.284;18.860;2023-03-23T06:37:57;18.50;;;13.00;;
62056;SDS011;48016;50.284;18.860;2023-03-23T06:40:27;19.30;;;12.10;;
62056;SDS011;48016;50.284;18.860;2023-03-23T06:45:22;17.50;;;11.50;;
62056;SDS011;48016;50.284;18.860;2023-03-23T06:47:48;17.80;;;11.30;;
62056;SDS011;48016;50.284;18.860;2023-03-23T06:50:15;17.10;;;12.00;;
62056;SDS011;48016;50.284;18.860;2023-03-23T06:52:45;16.80;;;10.90;;
62056;SDS011;48016;50.284;18.860;2023-03-23T06:55:12;17.10;;;12.50;;
62056;SDS011;48016;50.284;18.860;2023-03-23T06:57:40;16.50;;;12.30;;
62056;SDS011;48016;50.284;18.860;2023-03-23T07:00:08;18.60;;;12.50;;
62056;SDS011;48016;50.284;18.860;2023-03-23T07:02:39;19.70;;;12.60;;
62056;SDS011;48016;50.284;18.860;2023-03-23T07:05:09;19.50;;;12.90;;
62056;SDS011;48016;50.284;18.860;2023-03-23T07:07:37;17.60;;;12.80;;
62056;SDS011;48016;50.284;18.860;2023-03-23T07:10:04;17.60;;;12.80;;
62056;SDS011;48016;50.284;18.860;2023-03-23T07:12:31;22.60;;;12.80;;
62056;SDS011;48016;50.284;18.860;2023-03-23T07:14:59;19.00;;;13.40;;
62056;SDS011;48016;50.284;18.860;2023-03-23T07:17:25;19.90;;;13.10;;
62056;SDS011;48016;50.284;18.860;2023-03-23T07:19:51;18.10;;;12.30;;
62056;SDS011;48016;50.284;18.860;2023-03-23T07:22:17;15.20;;;11.60;;
62056;SDS011;48016;50.284;18.860;2023-03-23T07:24:43;18.40;;;11.40;;
62056;SDS011;48016;50.284;18.860;2023-03-23T07:27:09;20.80;;;12.70;;
62056;SDS011;48016;50.284;18.860;2023-03-23T07:29:36;22.60;;;13.40;;
62056;SDS011;48016;50.284;18.860;2023-03-23T07:32:04;23.00;;;11.90;;
62056;SDS011;48016;50.284;18.860;2023-03-23T07:34:32;17.40;;;10.50;;
62056;SDS011;48016;50.284;18.860;2023-03-23T07:36:58;14.80;;;9.40;;
62056;SDS011;48016;50.284;18.860;2023-03-23T07:39:25;15.20;;;8.50;;
62056;SDS011;48016;50.284;18.860;2023-03-23T07:41:51;15.20;;;9.50;;
62056;SDS011;48016;50.284;18.860;2023-03-23T07:44:18;11.90;;;9.30;;
62056;SDS011;48016;50.284;18.860;2023-03-23T07:46:43;17.30;;;10.30;;
62056;SDS011;48016;50.284;18.860;2023-03-23T07:49:10;12.90;;;9.30;;
62056;SDS011;48016;50.284;18.860;2023-03-23T07:51:36;15.70;;;10.10;;
62056;SDS011;48016;50.284;18.860;2023-03-23T07:54:04;17.50;;;9.70;;
62056;SDS011;48016;50.284;18.860;2023-03-23T07:56:32;13.80;;;9.80;;
62056;SDS011;48016;50.284;18.860;2023-03-23T07:58:59;17.00;;;10.20;;
62056;SDS011;48016;50.284;18.860;2023-03-23T08:01:26;13.10;;;10.00;;
62056;SDS011;48016;50.284;18.860;2023-03-23T08:03:53;14.90;;;9.90;;
62056;SDS011;48016;50.284;18.860;2023-03-23T08:06:20;13.70;;;9.60;;
62056;SDS011;48016;50.284;18.860;2023-03-23T08:08:47;14.30;;;9.60;;
62056;SDS011;48016;50.284;18.860;2023-03-23T08:11:13;13.90;;;9.70;;
62056;SDS011;48016;50.284;18.860;2023-03-23T08:13:41;15.70;;;8.80;;
62056;SDS011;48016;50.284;18.860;2023-03-23T08:16:08;11.70;;;9.10;;
62056;SDS011;48016;50.284;18.860;2023-03-23T08:18:35;12.90;;;9.50;;
62056;SDS011;48016;50.284;18.860;2023-03-23T08:21:03;15.00;;;9.10;;
62056;SDS011;48016;50.284;18.860;2023-03-23T08:23:35;13.40;;;9.00;;
62056;SDS011;48016;50.284;18.860;2023-03-23T08:26:03;12.70;;;8.60;;
62056;SDS011;48016;50.284;18.860;2023-03-23T08:28:32;12.10;;;8.60;;
62056;SDS011;48016;50.284;18.860;2023-03-23T08:30:59;14.40;;;9.10;;
62056;SDS011;48016;50.284;18.860;2023-03-23T08:33:25;12.80;;;9.00;;
62056;SDS011;48016;50.284;18.860;2023-03-23T08:35:54;12.90;;;8.60;;
62056;SDS011;48016;50.284;18.860;2023-03-23T08:38:25;13.30;;;8.50;;
62056;SDS011;48016;50.284;18.860;2023-03-23T08:40:56;14.10;;;9.10;;
62056;SDS011;48016;50.284;18.860;2023-03-23T08:43:24;14.70;;;9.20;;
62056;SDS011;48016;50.284;18.860;2023-03-23T08:45:51;13.20;;;8.90;;
62056;SDS011;48016;50.284;18.860;2023-03-23T08:48:17;13.70;;;8.60;;
62056;SDS011;48016;50.284;18.860;2023-03-23T08:50:43;14.90;;;9.10;;
62056;SDS011;48016;50.284;18.860;2023-03-23T08:53:10;13.80;;;9.10;;
62056;SDS011;48016;50.284;18.860;2023-03-23T08:55:37;11.90;;;9.10;;
62056;SDS011;48016;50.284;18.860;2023-03-23T08:58:04;14.00;;;9.20;;
62056;SDS011;48016;50.284;18.860;2023-03-23T09:00:30;11.20;;;7.50;;
62056;SDS011;48016;50.284;18.860;2023-03-23T09:02:56;15.60;;;8.50;;
62056;SDS011;48016;50.284;18.860;2023-03-23T09:05:23;10.80;;;7.80;;
62056;SDS011;48016;50.284;18.860;2023-03-23T09:07:52;12.60;;;7.40;;
62056;SDS011;48016;50.284;18.860;2023-03-23T09:10:20;10.70;;;7.50;;
62056;SDS011;48016;50.284;18.860;2023-03-23T09:12:48;13.40;;;7.90;;
62056;SDS011;48016;50.284;18.860;2023-03-23T09:15:16;11.30;;;7.60;;
62056;SDS011;48016;50.284;18.860;2023-03-23T09:17:44;12.10;;;7.80;;
62056;SDS011;48016;50.284;18.860;2023-03-23T09:20:13;11.50;;;7.40;;
62056;SDS011;48016;50.284;18.860;2023-03-23T09:22:41;12.80;;;6.80;;
62056;SDS011;48016;50.284;18.860;2023-03-23T09:25:12;10.20;;;6.80;;
62056;SDS011;48016;50.284;18.860;2023-03-23T09:27:41;13.10;;;6.90;;
62056;SDS011;48016;50.284;18.860;2023-03-23T09:30:09;11.60;;;6.30;;
62056;SDS011;48016;50.284;18.860;2023-03-23T09:32:37;12.10;;;6.80;;
62056;SDS011;48016;50.284;18.860;2023-03-23T09:35:05;9.00;;;6.50;;
62056;SDS011;48016;50.284;18.860;2023-03-23T09:37:34;11.10;;;6.40;;
62056;SDS011;48016;50.284;18.860;2023-03-23T09:40:02;10.10;;;6.70;;
62056;SDS011;48016;50.284;18.860;2023-03-23T09:50:16;9.30;;;5.90;;
62056;SDS011;48016;50.284;18.860;2023-03-23T09:56:08;8.90;;;5.80;;
62056;SDS011;48016;50.284;18.860;2023-03-23T09:58:42;9.40;;;5.20;;
62056;SDS011;48016;50.284;18.860;2023-03-23T10:01:17;10.00;;;5.10;;
62056;SDS011;48016;50.284;18.860;2023-03-23T10:03:49;10.00;;;5.20;;
62056;SDS011;48016;50.284;18.860;2023-03-23T10:06:23;8.60;;;5.30;;
62056;SDS011;48016;50.284;18.860;2023-03-23T10:08:51;8.00;;;4.90;;
62056;SDS011;48016;50.284;18.860;2023-03-23T10:28:38;8.20;;;4.30;;
62056;SDS011;48016;50.284;18.860;2023-03-23T10:31:10;8.80;;;4.20;;
62056;SDS011;48016;50.284;18.860;2023-03-23T10:33:42;9.50;;;4.40;;
62056;SDS011;48016;50.284;18.860;2023-03-23T10:41:33;8.80;;;4.00;;
62056;SDS011;48016;50.284;18.860;2023-03-23T10:44:00;7.20;;;4.00;;
62056;SDS011;48016;50.284;18.860;2023-03-23T10:46:45;8.30;;;4.00;;
62056;SDS011;48016;50.284;18.860;2023-03-23T10:49:28;9.20;;;4.30;;
62056;SDS011;48016;50.284;18.860;2023-03-23T10:54:37;10.30;;;4.70;;
62056;SDS011;48016;50.284;18.860;2023-03-23T10:57:26;8.10;;;4.60;;
62056;SDS011;48016;50.284;18.860;2023-03-23T11:00:00;8.30;;;4.90;;
62056;SDS011;48016;50.284;18.860;2023-03-23T11:02:39;6.00;;;4.00;;
62056;SDS011;48016;50.284;18.860;2023-03-23T11:05:21;7.40;;;4.70;;
62056;SDS011;48016;50.284;18.860;2023-03-23T11:07:51;8.10;;;4.80;;
62056;SDS011;48016;50.284;18.860;2023-03-23T11:10:21;8.80;;;5.10;;
62056;SDS011;48016;50.284;18.860;2023-03-23T11:12:49;8.50;;;4.50;;
62056;SDS011;48016;50.284;18.860;2023-03-23T11:15:20;7.20;;;4.80;;
62056;SDS011;48016;50.284;18.860;2023-03-23T11:18:03;7.30;;;4.30;;
62056;SDS011;48016;50.284;18.860;2023-03-23T11:20:34;8.20;;;4.70;;
62056;SDS011;48016;50.284;18.860;2023-03-23T11:23:19;6.90;;;4.30;;
62056;SDS011;48016;50.284;18.860;2023-03-23T11:26:08;5.80;;;3.80;;
62056;SDS011;48016;50.284;18.860;2023-03-23T11:28:42;7.60;;;4.20;;
62056;SDS011;48016;50.284;18.860;2023-03-23T11:31:12;9.50;;;4.90;;
62056;SDS011;48016;50.284;18.860;2023-03-23T11:33:47;8.90;;;4.60;;
62056;SDS011;48016;50.284;18.860;2023-03-23T11:36:19;7.70;;;4.30;;
62056;SDS011;48016;50.284;18.860;2023-03-23T11:38:52;8.90;;;4.90;;
62056;SDS011;48016;50.284;18.860;2023-03-23T11:41:22;7.10;;;3.90;;
62056;SDS011;48016;50.284;18.860;2023-03-23T11:46:29;8.20;;;4.80;;
62056;SDS011;48016;50.284;18.860;2023-03-23T11:49:01;7.30;;;4.50;;
62056;SDS011;48016;50.284;18.860;2023-03-23T11:51:36;7.40;;;4.60;;
62056;SDS011;48016;50.284;18.860;2023-03-23T11:54:13;5.70;;;4.20;;
62056;SDS011;48016;50.284;18.860;2023-03-23T11:56:45;8.70;;;4.30;;
62056;SDS011;48016;50.284;18.860;2023-03-23T11:59:13;8.30;;;4.40;;
62056;SDS011;48016;50.284;18.860;2023-03-23T12:01:47;7.00;;;4.40;;
62056;SDS011;48016;50.284;18.860;2023-03-23T12:04:35;7.60;;;4.60;;
62056;SDS011;48016;50.284;18.860;2023-03-23T12:07:35;8.60;;;4.70;;
62056;SDS011;48016;50.284;18.860;2023-03-23T12:12:55;9.40;;;5.30;;
62056;SDS011;48016;50.284;18.860;2023-03-23T12:18:38;8.20;;;5.00;;
62056;SDS011;48016;50.284;18.860;2023-03-23T12:23:59;8.20;;;5.50;;
62056;SDS011;48016;50.284;18.860;2023-03-23T12:29:45;8.90;;;5.20;;
62056;SDS011;48016;50.284;18.860;2023-03-23T12:51:38;7.40;;;5.00;;
62056;SDS011;48016;50.284;18.860;2023-03-23T12:54:28;6.90;;;4.50;;
62056;SDS011;48016;50.284;18.860;2023-03-23T13:04:43;7.70;;;4.80;;
62056;SDS011;48016;50.284;18.860;2023-03-23T13:07:17;7.30;;;4.30;;
62056;SDS011;48016;50.284;18.860;2023-03-23T13:09:55;7.80;;;4.30;;
62056;SDS011;48016;50.284;18.860;2023-03-23T13:12:30;8.40;;;4.40;;
62056;SDS011;48016;50.284;18.860;2023-03-23T13:15:03;6.90;;;4.30;;
62056;SDS011;48016;50.284;18.860;2023-03-23T13:23:12;6.00;;;4.10;;
62056;SDS011;48016;50.284;18.860;2023-03-23T13:25:45;7.50;;;4.60;;
62056;SDS011;48016;50.284;18.860;2023-03-23T13:28:16;7.80;;;4.60;;
62056;SDS011;48016;50.284;18.860;2023-03-23T13:30:53;7.20;;;4.20;;
62056;SDS011;48016;50.284;18.860;2023-03-23T13:33:23;7.80;;;4.20;;
62056;SDS011;48016;50.284;18.860;2023-03-23T13:35:50;6.70;;;4.30;;
62056;SDS011;48016;50.284;18.860;2023-03-23T13:40:53;7.30;;;4.20;;
62056;SDS011;48016;50.284;18.860;2023-03-23T13:43:25;7.60;;;4.20;;
62056;SDS011;48016;50.284;18.860;2023-03-23T13:48:46;7.80;;;4.40;;
62056;SDS011;48016;50.284;18.860;2023-03-23T13:51:24;6.50;;;3.70;;
62056;SDS011;48016;50.284;18.860;2023-03-23T13:54:14;6.20;;;4.00;;
62056;SDS011;48016;50.284;18.860;2023-03-23T13:56:53;5.40;;;3.70;;
62056;SDS011;48016;50.284;18.860;2023-03-23T14:01:53;5.40;;;3.90;;
62056;SDS011;48016;50.284;18.860;2023-03-23T14:04:20;6.30;;;4.30;;
62056;SDS011;48016;50.284;18.860;2023-03-23T14:06:51;6.70;;;4.10;;
62056;SDS011;48016;50.284;18.860;2023-03-23T14:09:26;7.20;;;4.10;;
62056;SDS011;48016;50.284;18.860;2023-03-23T14:12:02;7.10;;;4.20;;
62056;SDS011;48016;50.284;18.860;2023-03-23T14:14:42;9.00;;;4.10;;
62056;SDS011;48016;50.284;18.860;2023-03-23T14:19:40;7.20;;;4.50;;
62056;SDS011;48016;50.284;18.860;2023-03-23T14:24:44;8.50;;;4.30;;
62056;SDS011;48016;50.284;18.860;2023-03-23T14:27:14;7.90;;;4.80;;
62056;SDS011;48016;50.284;18.860;2023-03-23T14:29:42;12.40;;;5.00;;
62056;SDS011;48016;50.284;18.860;2023-03-23T14:32:14;13.10;;;5.00;;
62056;SDS011;48016;50.284;18.860;2023-03-23T14:34:44;8.30;;;5.00;;
62056;SDS011;48016;50.284;18.860;2023-03-23T14:37:14;8.50;;;4.90;;
62056;SDS011;48016;50.284;18.860;2023-03-23T14:39:44;10.60;;;4.80;;
62056;SDS011;48016;50.284;18.860;2023-03-23T14:42:14;10.20;;;5.40;;
62056;SDS011;48016;50.284;18.860;2023-03-23T14:44:49;8.40;;;5.60;;
62056;SDS011;48016;50.284;18.860;2023-03-23T14:47:20;8.80;;;5.30;;
62056;SDS011;48016;50.284;18.860;2023-03-23T14:53:07;8.50;;;5.60;;
62056;SDS011;48016;50.284;18.860;2023-03-23T14:58:28;11.80;;;5.70;;
62056;SDS011;48016;50.284;18.860;2023-03-23T15:00:56;8.50;;;5.50;;
62056;SDS011;48016;50.284;18.860;2023-03-23T15:03:25;9.90;;;5.90;;
62056;SDS011;48016;50.284;18.860;2023-03-23T15:05:54;7.80;;;5.10;;
62056;SDS011;48016;50.284;18.860;2023-03-23T15:08:27;9.00;;;5.40;;
62056;SDS011;48016;50.284;18.860;2023-03-23T15:13:26;11.70;;;6.30;;
62056;SDS011;48016;50.284;18.860;2023-03-23T15:16:00;9.50;;;5.20;;
62056;SDS011;48016;50.284;18.860;2023-03-23T15:18:33;10.70;;;5.60;;
62056;SDS011;48016;50.284;18.860;2023-03-23T15:21:09;10.10;;;5.80;;
62056;SDS011;48016;50.284;18.860;2023-03-23T15:23:42;8.70;;;5.50;;
62056;SDS011;48016;50.284;18.860;2023-03-23T15:26:15;11.10;;;6.30;;
62056;SDS011;48016;50.284;18.860;2023-03-23T15:31:34;13.90;;;7.00;;
62056;SDS011;48016;50.284;18.860;2023-03-23T15:34:05;12.30;;;6.60;;
62056;SDS011;48016;50.284;18.860;2023-03-23T15:36:34;11.50;;;7.20;;
62056;SDS011;48016;50.284;18.860;2023-03-23T15:39:01;12.80;;;6.80;;
62056;SDS011;48016;50.284;18.860;2023-03-23T15:41:30;14.20;;;7.30;;
62056;SDS011;48016;50.284;18.860;2023-03-23T15:44:09;13.70;;;7.50;;
62056;SDS011;48016;50.284;18.860;2023-03-23T15:46:47;11.80;;;7.00;;
62056;SDS011;48016;50.284;18.860;2023-03-23T15:49:16;13.30;;;6.80;;
62056;SDS011;48016;50.284;18.860;2023-03-23T15:51:43;12.30;;;6.50;;
62056;SDS011;48016;50.284;18.860;2023-03-23T15:54:14;11.20;;;6.60;;
62056;SDS011;48016;50.284;18.860;2023-03-23T15:56:42;9.60;;;6.30;;
62056;SDS011;48016;50.284;18.860;2023-03-23T16:01:35;14.90;;;8.40;;
62056;SDS011;48016;50.284;18.860;2023-03-23T16:04:04;18.10;;;9.80;;
62056;SDS011;48016;50.284;18.860;2023-03-23T16:06:37;15.80;;;8.60;;
62056;SDS011;48016;50.284;18.860;2023-03-23T16:09:04;16.20;;;8.70;;
62056;SDS011;48016;50.284;18.860;2023-03-23T16:11:31;15.40;;;8.30;;
62056;SDS011;48016;50.284;18.860;2023-03-23T16:13:58;15.50;;;7.40;;
62056;SDS011;48016;50.284;18.860;2023-03-23T16:16:26;11.30;;;6.60;;
62056;SDS011;48016;50.284;18.860;2023-03-23T16:18:55;11.50;;;6.70;;
62056;SDS011;48016;50.284;18.860;2023-03-23T16:21:21;10.40;;;6.40;;
62056;SDS011;48016;50.284;18.860;2023-03-23T16:23:48;12.80;;;6.50;;
62056;SDS011;48016;50.284;18.860;2023-03-23T16:26:14;13.30;;;7.50;;
62056;SDS011;48016;50.284;18.860;2023-03-23T16:28:41;11.60;;;6.90;;
62056;SDS011;48016;50.284;18.860;2023-03-23T16:33:34;11.90;;;7.20;;
62056;SDS011;48016;50.284;18.860;2023-03-23T16:36:00;15.50;;;8.20;;
62056;SDS011;48016;50.284;18.860;2023-03-23T16:38:26;12.60;;;7.70;;
62056;SDS011;48016;50.284;18.860;2023-03-23T16:40:52;13.50;;;7.70;;
62056;SDS011;48016;50.284;18.860;2023-03-23T16:43:18;12.40;;;7.50;;
62056;SDS011;48016;50.284;18.860;2023-03-23T16:45:46;15.40;;;7.50;;
62056;SDS011;48016;50.284;18.860;2023-03-23T16:48:13;11.90;;;7.70;;
62056;SDS011;48016;50.284;18.860;2023-03-23T16:50:40;16.90;;;7.60;;
62056;SDS011;48016;50.284;18.860;2023-03-23T16:53:08;11.10;;;6.30;;
62056;SDS011;48016;50.284;18.860;2023-03-23T16:55:35;9.90;;;6.10;;
62056;SDS011;48016;50.284;18.860;2023-03-23T16:58:02;11.90;;;6.50;;
62056;SDS011;48016;50.284;18.860;2023-03-23T17:00:29;12.40;;;6.10;;
62056;SDS011;48016;50.284;18.860;2023-03-23T17:02:56;9.50;;;5.80;;
62056;SDS011;48016;50.284;18.860;2023-03-23T17:05:24;9.20;;;6.40;;
62056;SDS011;48016;50.284;18.860;2023-03-23T17:07:53;13.20;;;6.40;;
62056;SDS011;48016;50.284;18.860;2023-03-23T17:10:23;9.40;;;6.10;;
62056;SDS011;48016;50.284;18.860;2023-03-23T17:12:52;12.00;;;6.40;;
62056;SDS011;48016;50.284;18.860;2023-03-23T17:15:18;12.60;;;7.20;;
62056;SDS011;48016;50.284;18.860;2023-03-23T17:17:45;13.00;;;7.40;;
62056;SDS011;48016;50.284;18.860;2023-03-23T17:20:11;11.90;;;7.20;;
62056;SDS011;48016;50.284;18.860;2023-03-23T17:22:38;11.30;;;7.90;;
62056;SDS011;48016;50.284;18.860;2023-03-23T17:25:05;13.10;;;8.10;;
62056;SDS011;48016;50.284;18.860;2023-03-23T17:27:34;11.80;;;7.30;;
62056;SDS011;48016;50.284;18.860;2023-03-23T17:32:28;12.50;;;7.90;;
62056;SDS011;48016;50.284;18.860;2023-03-23T17:34:54;13.20;;;8.40;;
62056;SDS011;48016;50.284;18.860;2023-03-23T17:37:20;15.30;;;8.90;;
62056;SDS011;48016;50.284;18.860;2023-03-23T17:39:47;13.90;;;8.50;;
62056;SDS011;48016;50.284;18.860;2023-03-23T17:42:13;16.80;;;9.20;;
62056;SDS011;48016;50.284;18.860;2023-03-23T17:44:39;15.60;;;8.90;;
62056;SDS011;48016;50.284;18.860;2023-03-23T17:47:05;13.90;;;8.80;;
62056;SDS011;48016;50.284;18.860;2023-03-23T17:49:31;14.40;;;9.80;;
62056;SDS011;48016;50.284;18.860;2023-03-23T17:51:57;15.10;;;8.00;;
62056;SDS011;48016;50.284;18.860;2023-03-23T17:54:25;13.00;;;7.90;;
62056;SDS011;48016;50.284;18.860;2023-03-23T17:56:53;15.90;;;8.80;;
62056;SDS011;48016;50.284;18.860;2023-03-23T17:59:22;11.90;;;7.90;;
62056;SDS011;48016;50.284;18.860;2023-03-23T18:01:50;13.70;;;8.30;;
62056;SDS011;48016;50.284;18.860;2023-03-23T18:04:17;10.60;;;6.90;;
62056;SDS011;48016;50.284;18.860;2023-03-23T18:06:43;15.80;;;8.80;;
62056;SDS011;48016;50.284;18.860;2023-03-23T18:09:10;15.90;;;8.40;;
62056;SDS011;48016;50.284;18.860;2023-03-23T18:11:36;11.40;;;7.80;;
62056;SDS011;48016;50.284;18.860;2023-03-23T18:14:02;14.00;;;8.80;;
62056;SDS011;48016;50.284;18.860;2023-03-23T18:16:28;14.70;;;8.40;;
62056;SDS011;48016;50.284;18.860;2023-03-23T18:18:54;14.10;;;8.80;;
62056;SDS011;48016;50.284;18.860;2023-03-23T18:21:21;13.70;;;9.10;;
62056;SDS011;48016;50.284;18.860;2023-03-23T18:23:48;14.20;;;9.40;;
62056;SDS011;48016;50.284;18.860;2023-03-23T18:26:15;14.50;;;9.70;;
62056;SDS011;48016;50.284;18.860;2023-03-23T18:28:41;18.30;;;9.50;;
62056;SDS011;48016;50.284;18.860;2023-03-23T18:31:09;25.80;;;15.00;;
62056;SDS011;48016;50.284;18.860;2023-03-23T18:33:38;40.00;;;24.00;;
62056;SDS011;48016;50.284;18.860;2023-03-23T18:36:07;43.00;;;26.10;;
62056;SDS011;48016;50.284;18.860;2023-03-23T18:38:34;46.60;;;27.70;;
62056;SDS011;48016;50.284;18.860;2023-03-23T18:41:04;50.00;;;28.40;;
62056;SDS011;48016;50.284;18.860;2023-03-23T18:43:31;51.90;;;29.40;;
62056;SDS011;48016;50.284;18.860;2023-03-23T18:45:57;49.10;;;28.40;;
62056;SDS011;48016;50.284;18.860;2023-03-23T18:48:24;49.90;;;27.50;;
62056;SDS011;48016;50.284;18.860;2023-03-23T18:50:51;48.30;;;26.80;;
62056;SDS011;48016;50.284;18.860;2023-03-23T18:53:19;62.90;;;32.60;;